Time;durP1;ratioP1;P1;durP2;ratioP2;P2;SDS_P1;SDS_P2;PMS_P1;PMS_P2;Temp;Humidity;BMP_temperature;BMP_pressure;BME280_temperature;BME280_humidity;BME280_pressure;Samples;Min_cycle;Max_cycle;Signal;HPM_P1;HPM_P2
2024/04/14 00:01:56;;;;;;;9.77;9.07;;;17.90;20.60;;;;;;5371424;26;20237;-78
2024/04/14 00:04:21;;;;;;;9.37;8.77;;;17.90;20.40;;;;;;5402198;26;20285;-79
2024/04/14 00:06:47;;;;;;;9.57;8.77;;;17.90;20.30;;;;;;5416881;26;20280;-78
2024/04/14 00:09:13;;;;;;;9.90;9.20;;;17.90;20.20;;;;;;5416671;26;20728;-78
2024/04/14 00:11:39;;;;;;;9.50;8.80;;;17.80;20.20;;;;;;5407193;26;20234;-77
2024/04/14 00:14:05;;;;;;;8.77;8.13;;;17.80;20.20;;;;;;5373619;26;21140;-78
2024/04/14 00:16:31;;;;;;;9.13;8.30;;;17.80;20.20;;;;;;5412786;26;20327;-79
2024/04/14 00:18:56;;;;;;;9.50;8.90;;;17.80;20.20;;;;;;5415218;26;20532;-78
2024/04/14 00:21:22;;;;;;;9.90;9.10;;;17.80;20.20;;;;;;5415521;26;20720;-77
2024/04/14 00:23:48;;;;;;;10.00;9.30;;;17.70;20.10;;;;;;5415701;26;20526;-77
2024/04/14 00:26:14;;;;;;;10.00;9.20;;;17.80;20.20;;;;;;5414818;26;20279;-78
2024/04/14 00:28:40;;;;;;;9.00;8.50;;;17.80;20.20;;;;;;5414597;26;20471;-78
2024/04/14 00:31:06;;;;;;;9.20;8.60;;;17.70;20.10;;;;;;5415623;26;20264;-78
2024/04/14 00:33:34;;;;;;;8.67;8.17;;;17.70;19.70;;;;;;5414524;26;20459;-78
2024/04/14 00:36:03;;;;;;;8.97;8.27;;;17.70;19.80;;;;;;5400675;26;20245;-77
2024/04/14 00:38:28;;;;;;;8.13;7.63;;;17.80;19.20;;;;;;5415778;26;20581;-78
2024/04/14 00:40:54;;;;;;;8.90;8.20;;;17.70;19.10;;;;;;5384721;26;20483;-77
2024/04/14 00:43:20;;;;;;;9.10;8.50;;;17.70;19.00;;;;;;5416311;26;20705;-78
2024/04/14 00:45:46;;;;;;;9.33;8.83;;;17.70;18.60;;;;;;5416206;26;20603;-78
2024/04/14 00:48:13;;;;;;;8.50;8.00;;;17.70;18.30;;;;;;5417546;26;20933;-77
2024/04/14 00:50:43;;;;;;;8.10;7.60;;;17.70;17.80;;;;;;5422848;26;20514;-78
2024/04/14 00:53:09;;;;;;;8.53;7.90;;;17.70;17.80;;;;;;5390940;26;20859;-78
2024/04/14 00:55:37;;;;;;;8.40;7.60;;;17.70;17.60;;;;;;5417932;26;21041;-77
2024/04/14 00:58:03;;;;;;;7.67;7.27;;;17.70;17.60;;;;;;5415461;26;20991;-78
2024/04/14 01:00:29;;;;;;;8.50;7.87;;;17.70;17.60;;;;;;5416000;26;20466;-78
2024/04/14 01:02:55;;;;;;;7.67;7.27;;;17.70;17.30;;;;;;5384908;26;20313;-77
2024/04/14 01:05:24;;;;;;;7.83;7.33;;;17.70;17.40;;;;;;5384334;26;20919;-78
2024/04/14 01:07:51;;;;;;;7.43;7.03;;;17.60;17.30;;;;;;5416294;26;20234;-78
2024/04/14 01:10:17;;;;;;;8.10;7.60;;;17.60;17.60;;;;;;5415726;26;20519;-77
2024/04/14 01:12:43;;;;;;;7.60;7.10;;;17.60;17.30;;;;;;5416210;26;20527;-78
2024/04/14 01:30:33;;;;;;;7.47;6.97;;;17.60;16.80;;;;;;5328648;26;20546;-76
2024/04/14 01:32:59;;;;;;;7.33;6.93;;;17.60;16.90;;;;;;5314423;26;20656;-79
2024/04/14 01:35:24;;;;;;;7.90;7.50;;;17.50;16.80;;;;;;5285473;26;20236;-77
2024/04/14 01:37:50;;;;;;;7.33;6.93;;;17.60;16.90;;;;;;5346516;26;20244;-78
2024/04/14 01:40:17;;;;;;;7.10;6.70;;;17.50;16.60;;;;;;5311060;26;20762;-78
2024/04/14 01:42:43;;;;;;;7.60;7.10;;;17.50;16.60;;;;;;5310634;26;20338;-78
2024/04/14 01:45:09;;;;;;;7.67;7.27;;;17.50;16.70;;;;;;5280931;27;20934;-78
2024/04/14 01:47:36;;;;;;;7.50;7.20;;;17.50;16.70;;;;;;5310528;26;20628;-77
2024/04/14 01:50:02;;;;;;;7.57;7.17;;;17.50;16.70;;;;;;5310888;26;20602;-78
2024/04/14 01:52:28;;;;;;;6.57;6.17;;;17.40;16.60;;;;;;5311158;26;20989;-77
2024/04/14 01:54:54;;;;;;;6.33;6.03;;;17.40;17.20;;;;;;5310841;26;20472;-78
2024/04/14 01:57:19;;;;;;;7.33;6.90;;;17.40;16.80;;;;;;5310546;26;20232;-78
2024/04/14 01:59:45;;;;;;;7.20;6.80;;;17.40;16.70;;;;;;5324650;26;20712;-77
2024/04/14 02:02:10;;;;;;;6.87;6.57;;;17.40;16.60;;;;;;5310809;26;20233;-78
2024/04/14 02:04:35;;;;;;;7.07;6.57;;;17.40;16.50;;;;;;5311267;26;20278;-78
2024/04/14 02:07:01;;;;;;;6.17;5.87;;;17.30;16.50;;;;;;5313811;26;20232;-78
2024/04/14 02:09:26;;;;;;;5.97;5.63;;;17.30;16.30;;;;;;5313030;26;20335;-78
2024/04/14 02:11:52;;;;;;;6.57;6.20;;;17.30;16.30;;;;;;5313558;26;20228;-78
2024/04/14 02:14:18;;;;;;;6.93;6.37;;;17.30;16.40;;;;;;5340649;26;20244;-78
2024/04/14 02:16:43;;;;;;;6.83;6.43;;;17.30;16.30;;;;;;5313426;26;20244;-77
2024/04/14 02:19:08;;;;;;;6.60;6.20;;;17.30;16.90;;;;;;5313236;26;20826;-78
2024/04/14 02:21:34;;;;;;;6.43;6.00;;;17.30;16.20;;;;;;5313924;26;20229;-77
2024/04/14 02:23:59;;;;;;;6.40;6.10;;;17.30;16.50;;;;;;5313778;26;20579;-78
2024/04/14 02:26:25;;;;;;;6.43;6.13;;;17.30;16.50;;;;;;5315685;26;20276;-78
2024/04/14 02:28:50;;;;;;;6.50;6.10;;;17.30;16.50;;;;;;5288579;27;20256;-77
2024/04/14 02:31:16;;;;;;;6.30;6.00;;;17.20;16.40;;;;;;5320167;26;20299;-78
2024/04/14 02:33:41;;;;;;;6.60;6.10;;;17.20;16.40;;;;;;5315492;26;20232;-78
2024/04/14 02:36:07;;;;;;;9.13;6.30;;;17.20;16.50;;;;;;5324400;26;20909;-78
2024/04/14 02:38:32;;;;;;;6.53;6.10;;;17.20;16.90;;;;;;5317424;26;20724;-78
2024/04/14 02:40:59;;;;;;;6.43;6.13;;;17.20;16.60;;;;;;5312895;26;20712;-78
2024/04/14 02:43:25;;;;;;;6.67;6.27;;;17.20;16.70;;;;;;5282890;27;20757;-78
2024/04/14 02:45:50;;;;;;;5.80;5.47;;;17.20;16.50;;;;;;5340006;26;20546;-78
2024/04/14 02:48:17;;;;;;;6.30;6.00;;;17.10;16.40;;;;;;5312151;26;20675;-77
2024/04/14 02:50:43;;;;;;;6.43;6.13;;;17.10;16.50;;;;;;5312552;26;20311;-78
2024/04/14 02:53:10;;;;;;;7.10;6.70;;;17.10;16.40;;;;;;5312896;26;20979;-77
2024/04/14 02:55:36;;;;;;;6.90;6.50;;;17.20;16.50;;;;;;5313074;26;20615;-78
2024/04/14 02:58:02;;;;;;;6.77;6.37;;;17.10;16.40;;;;;;5312464;26;20652;-78
2024/04/14 03:00:28;;;;;;;5.80;5.50;;;17.10;16.40;;;;;;5312510;26;20527;-78
2024/04/14 03:02:53;;;;;;;6.10;5.80;;;17.10;16.50;;;;;;5282262;27;20475;-77
2024/04/14 03:05:19;;;;;;;5.90;5.67;;;17.10;16.50;;;;;;5324875;26;20235;-78
2024/04/14 03:07:45;;;;;;;6.07;5.77;;;17.10;16.60;;;;;;5297698;26;20294;-77
2024/04/14 03:10:10;;;;;;;6.20;5.90;;;17.20;16.90;;;;;;5312737;26;20233;-78
2024/04/14 03:12:36;;;;;;;6.00;5.70;;;17.10;16.60;;;;;;5312933;26;20233;-77
2024/04/14 03:15:01;;;;;;;6.27;5.87;;;17.10;16.60;;;;;;5312867;26;20279;-78
2024/04/14 03:17:27;;;;;;;6.33;6.03;;;17.20;16.70;;;;;;5339513;26;20341;-79
2024/04/14 03:19:53;;;;;;;6.10;5.80;;;17.20;16.80;;;;;;5348340;26;20648;-78
2024/04/14 03:22:18;;;;;;;7.30;6.63;;;17.10;17.00;;;;;;5348430;26;20235;-77
2024/04/14 03:24:44;;;;;;;6.60;6.20;;;17.10;16.70;;;;;;5315745;26;20575;-78
2024/04/14 03:27:09;;;;;;;6.90;6.50;;;17.10;16.80;;;;;;5341041;26;20244;-79
2024/04/14 03:29:35;;;;;;;5.63;5.43;;;17.10;16.70;;;;;;5283688;26;20255;-78
2024/04/14 03:32:00;;;;;;;6.53;6.03;;;17.10;16.80;;;;;;5321897;26;20614;-78
2024/04/14 03:34:26;;;;;;;6.63;6.20;;;17.20;16.60;;;;;;5375275;26;20251;-78
2024/04/14 03:36:51;;;;;;;5.90;5.70;;;17.10;16.60;;;;;;5347944;26;20232;-78
2024/04/14 03:39:17;;;;;;;6.50;6.10;;;17.10;16.40;;;;;;5348278;26;20239;-78
2024/04/14 03:41:42;;;;;;;6.37;6.00;;;17.20;16.20;;;;;;5315680;26;20239;-77
2024/04/14 03:44:07;;;;;;;5.83;5.53;;;17.20;16.30;;;;;;5346823;26;20224;-78
2024/04/14 03:46:33;;;;;;;6.10;5.80;;;17.20;16.30;;;;;;5346154;26;20660;-77
2024/04/14 03:48:59;;;;;;;5.97;5.57;;;17.20;16.20;;;;;;5315625;26;20235;-77
2024/04/14 03:51:24;;;;;;;5.77;5.47;;;17.10;16.20;;;;;;5302986;27;20582;-76
2024/04/14 03:53:50;;;;;;;6.07;5.63;;;17.10;15.90;;;;;;5345117;26;20261;-77
2024/04/14 03:56:15;;;;;;;5.87;5.57;;;17.20;15.70;;;;;;5315440;26;20243;-77
2024/04/14 03:58:41;;;;;;;5.60;5.40;;;17.20;15.60;;;;;;5345498;26;20231;-77
2024/04/14 04:01:07;;;;;;;6.03;5.73;;;17.10;15.40;;;;;;5345782;26;20232;-77
2024/04/14 04:03:32;;;;;;;6.63;6.17;;;17.20;15.30;;;;;;5345721;26;20457;-77
2024/04/14 04:05:58;;;;;;;5.63;5.43;;;17.10;15.30;;;;;;5346026;26;20273;-78
2024/04/14 04:08:23;;;;;;;5.80;5.50;;;17.10;15.40;;;;;;5345513;26;20341;-78
2024/04/14 04:10:59;;;;;;;6.00;5.70;;;17.20;15.70;;;;;;5372868;26;20239;-78
2024/04/14 04:13:26;;;;;;;6.20;5.70;;;17.20;15.20;;;;;;5315098;26;20625;-77
2024/04/14 04:16:03;;;;;;;5.53;5.33;;;17.20;15.30;;;;;;5346108;26;20470;-78
2024/04/14 04:18:29;;;;;;;6.80;6.00;;;17.20;15.40;;;;;;5315808;26;20493;-77
2024/04/14 04:20:59;;;;;;;5.90;5.70;;;17.20;15.10;;;;;;5317144;26;20478;-80
2024/04/14 04:23:26;;;;;;;5.70;5.50;;;17.30;15.10;;;;;;5333339;26;20466;-78
2024/04/14 04:25:52;;;;;;;7.00;6.40;;;17.30;15.10;;;;;;5347092;26;20797;-78
2024/04/14 04:28:18;;;;;;;6.03;5.70;;;17.30;15.60;;;;;;5320104;26;20534;-78
2024/04/14 04:30:43;;;;;;;6.50;6.00;;;17.30;15.60;;;;;;5329231;26;20516;-77
2024/04/14 04:33:09;;;;;;;6.60;6.30;;;17.30;16.00;;;;;;5301621;26;20326;-77
2024/04/14 04:35:35;;;;;;;6.63;6.13;;;17.20;16.60;;;;;;5330771;26;20618;-78
2024/04/14 04:38:01;;;;;;;6.27;5.97;;;17.20;16.80;;;;;;5332167;26;20340;-78
2024/04/14 04:40:27;;;;;;;7.27;6.87;;;17.20;16.60;;;;;;5332919;26;20232;-79
2024/04/14 04:42:52;;;;;;;7.73;7.23;;;17.20;16.80;;;;;;5330221;26;20529;-77
2024/04/14 04:45:18;;;;;;;8.10;7.53;;;17.20;17.10;;;;;;5331408;26;20454;-77
2024/04/14 04:47:44;;;;;;;7.33;6.80;;;17.20;17.40;;;;;;5328202;26;20282;-77
2024/04/14 04:50:09;;;;;;;7.00;6.50;;;17.20;17.40;;;;;;5289393;26;20895;-76
2024/04/14 04:52:35;;;;;;;7.30;6.90;;;17.20;17.50;;;;;;5330226;26;20286;-77
2024/04/14 04:55:01;;;;;;;6.90;6.60;;;17.10;17.40;;;;;;5326164;26;20724;-78
2024/04/14 04:57:26;;;;;;;7.57;6.93;;;17.20;17.60;;;;;;5324865;26;20349;-77
2024/04/14 04:59:52;;;;;;;8.57;8.07;;;17.20;17.70;;;;;;5327664;26;20332;-80
2024/04/14 05:02:17;;;;;;;6.47;6.07;;;17.10;18.40;;;;;;5325210;26;20232;-78
2024/04/14 05:04:43;;;;;;;7.70;7.30;;;17.00;18.40;;;;;;5325645;26;20283;-77
2024/04/14 05:07:08;;;;;;;9.57;7.93;;;17.00;19.20;;;;;;5329049;26;20599;-77
2024/04/14 05:09:34;;;;;;;8.20;7.50;;;16.80;19.50;;;;;;5315600;26;20244;-77
2024/04/14 05:11:59;;;;;;;8.40;7.90;;;16.80;19.50;;;;;;5343841;26;20235;-79
2024/04/14 05:14:25;;;;;;;9.03;8.33;;;16.80;19.70;;;;;;5321840;26;20232;-78
2024/04/14 05:16:50;;;;;;;8.43;7.93;;;16.70;20.00;;;;;;5356797;26;20239;-78
2024/04/14 05:19:16;;;;;;;9.60;8.70;;;16.70;20.50;;;;;;5334560;26;20235;-77
2024/04/14 05:21:41;;;;;;;9.43;8.93;;;16.70;20.30;;;;;;5330827;26;20229;-77
2024/04/14 05:24:07;;;;;;;9.73;9.13;;;16.70;20.20;;;;;;5314880;26;20735;-78
2024/04/14 05:26:33;;;;;;;8.80;8.20;;;16.70;20.30;;;;;;5358063;26;20252;-77
2024/04/14 05:28:59;;;;;;;9.63;9.03;;;16.70;20.20;;;;;;5301925;27;20252;-77
2024/04/14 05:31:25;;;;;;;9.07;8.30;;;16.80;20.40;;;;;;5266265;27;20815;-77
2024/04/14 05:33:51;;;;;;;9.83;9.00;;;16.80;20.20;;;;;;5292128;27;20232;-77
2024/04/14 05:36:17;;;;;;;9.00;8.20;;;16.80;20.10;;;;;;5276928;27;20481;-79
2024/04/14 05:38:49;;;;;;;9.37;8.77;;;16.90;20.30;;;;;;5261578;26;20589;-80
2024/04/14 05:41:15;;;;;;;11.47;8.80;;;16.90;20.30;;;;;;5260642;27;20272;-77
2024/04/14 05:43:40;;;;;;;9.60;8.70;;;16.80;20.80;;;;;;5263975;27;20979;-78
2024/04/14 05:46:06;;;;;;;9.70;9.10;;;16.80;20.90;;;;;;5287054;27;20232;-79
2024/04/14 05:48:32;;;;;;;8.73;8.07;;;16.80;20.70;;;;;;5299295;27;20716;-78
2024/04/14 05:50:57;;;;;;;10.13;9.43;;;16.80;20.90;;;;;;5285221;27;20236;-77
2024/04/14 05:53:23;;;;;;;9.47;8.77;;;16.80;20.30;;;;;;5288470;27;20284;-78
2024/04/14 05:55:48;;;;;;;9.63;9.03;;;16.70;20.10;;;;;;5307730;27;20228;-77
2024/04/14 05:58:14;;;;;;;10.33;9.53;;;16.60;20.30;;;;;;5263310;27;20275;-76
2024/04/14 06:00:40;;;;;;;9.93;9.23;;;16.60;20.40;;;;;;5293919;27;20237;-77
2024/04/14 06:03:06;;;;;;;10.10;9.50;;;16.50;20.60;;;;;;5300602;27;20232;-78
2024/04/14 06:05:31;;;;;;;9.33;8.80;;;16.50;21.30;;;;;;5299535;27;20300;-77
2024/04/14 06:07:57;;;;;;;8.93;8.23;;;16.60;20.70;;;;;;5284971;27;21070;-77
2024/04/14 06:10:23;;;;;;;9.37;8.87;;;16.60;20.60;;;;;;5268643;27;20279;-77
2024/04/14 06:12:48;;;;;;;9.73;8.20;;;16.70;20.40;;;;;;5255095;27;20263;-77
2024/04/14 06:15:14;;;;;;;9.20;8.50;;;16.80;20.30;;;;;;5269238;27;20786;-78
2024/04/14 06:17:39;;;;;;;8.37;7.80;;;16.80;20.30;;;;;;5255783;27;20253;-78
2024/04/14 06:20:05;;;;;;;9.03;8.43;;;16.90;20.30;;;;;;5313167;27;20236;-78
2024/04/14 06:22:31;;;;;;;10.00;9.20;;;17.00;20.30;;;;;;5269332;27;20307;-79
2024/04/14 06:24:57;;;;;;;8.87;8.27;;;17.00;20.30;;;;;;5264604;27;20475;-77
2024/04/14 06:27:22;;;;;;;8.93;8.23;;;17.10;20.50;;;;;;5294270;27;20274;-77
2024/04/14 06:29:48;;;;;;;8.30;7.80;;;17.10;19.70;;;;;;5294233;27;20326;-77
2024/04/14 06:32:14;;;;;;;8.77;7.97;;;17.10;19.70;;;;;;5297940;27;20237;-76
2024/04/14 06:34:39;;;;;;;9.27;8.57;;;17.10;19.40;;;;;;5268963;27;20334;-78
2024/04/14 06:37:05;;;;;;;8.73;8.03;;;17.20;19.80;;;;;;5293884;27;20233;-78
2024/04/14 06:39:30;;;;;;;9.47;8.80;;;17.20;19.80;;;;;;5262590;27;20233;-78
2024/04/14 06:41:56;;;;;;;9.17;8.57;;;17.20;19.80;;;;;;5267751;27;20249;-78
2024/04/14 06:44:22;;;;;;;10.10;9.20;;;17.30;19.30;;;;;;5298825;26;20276;-76
2024/04/14 06:46:47;;;;;;;8.30;7.70;;;17.30;19.90;;;;;;5285941;27;20237;-77
2024/04/14 06:49:13;;;;;;;9.47;8.67;;;17.30;19.90;;;;;;5297356;27;20356;-79
2024/04/14 06:51:38;;;;;;;8.40;7.90;;;17.40;19.50;;;;;;5299731;27;20314;-78
2024/04/14 06:54:04;;;;;;;8.80;8.20;;;17.40;19.10;;;;;;5313743;27;20778;-78
2024/04/14 06:56:29;;;;;;;8.90;8.30;;;17.50;19.50;;;;;;5300180;27;20244;-79
2024/04/14 06:58:55;;;;;;;8.30;7.70;;;17.60;19.10;;;;;;5296313;27;20252;-77
2024/04/14 07:01:20;;;;;;;8.63;8.13;;;17.60;19.00;;;;;;5294354;27;20375;-78
2024/04/14 07:03:46;;;;;;;7.77;7.37;;;17.70;19.50;;;;;;5295982;27;20237;-78
2024/04/14 07:06:11;;;;;;;7.97;7.20;;;17.70;19.60;;;;;;5308757;27;20236;-78
2024/04/14 07:08:39;;;;;;;8.60;8.10;;;17.80;18.80;;;;;;5306158;26;20744;-79
2024/04/14 07:11:04;;;;;;;7.93;7.43;;;17.80;18.50;;;;;;5271001;27;20241;-78
2024/04/14 07:13:30;;;;;;;7.60;7.10;;;17.90;19.20;;;;;;5295485;27;21119;-79
2024/04/14 07:15:55;;;;;;;7.17;6.67;;;18.00;19.10;;;;;;5264577;27;20241;-79
2024/04/14 07:18:21;;;;;;;7.03;6.53;;;18.00;18.00;;;;;;5303221;26;20236;-79
2024/04/14 07:20:46;;;;;;;7.13;6.63;;;18.10;18.30;;;;;;5300268;27;20241;-79
2024/04/14 07:23:12;;;;;;;7.00;6.40;;;18.10;18.50;;;;;;5293364;27;20332;-79
2024/04/14 07:25:37;;;;;;;6.70;6.30;;;18.10;18.50;;;;;;5300676;27;20228;-79
2024/04/14 07:28:03;;;;;;;7.40;6.90;;;18.20;18.00;;;;;;5307708;27;20244;-79
2024/04/14 07:30:29;;;;;;;7.73;7.20;;;18.20;18.70;;;;;;5318904;26;20261;-78
2024/04/14 07:32:54;;;;;;;8.27;7.60;;;18.20;18.20;;;;;;5318305;26;20299;-79
2024/04/14 07:35:20;;;;;;;8.30;7.47;;;18.30;18.80;;;;;;5325738;26;20231;-79
2024/04/14 07:37:45;;;;;;;7.47;6.97;;;18.40;19.20;;;;;;5335638;26;20283;-78
2024/04/14 07:40:11;;;;;;;7.37;6.93;;;18.40;19.00;;;;;;5362607;26;20243;-78
2024/04/14 07:42:36;;;;;;;8.30;7.77;;;18.40;18.80;;;;;;5323089;26;20560;-78
2024/04/14 07:45:02;;;;;;;7.83;7.40;;;18.50;18.90;;;;;;5334224;26;20313;-79
2024/04/14 07:47:27;;;;;;;7.80;7.10;;;18.50;18.90;;;;;;5377935;26;20247;-78
2024/04/14 07:49:53;;;;;;;7.30;6.90;;;18.60;18.70;;;;;;5349935;26;20348;-78
2024/04/14 07:52:18;;;;;;;6.87;6.50;;;18.70;18.50;;;;;;5351690;26;20231;-78
2024/04/14 07:54:44;;;;;;;7.07;6.50;;;18.70;17.80;;;;;;5336990;26;20724;-78
2024/04/14 07:57:10;;;;;;;7.53;7.10;;;18.80;17.50;;;;;;5286654;26;20316;-78
2024/04/14 07:59:37;;;;;;;8.57;7.50;;;18.90;17.30;;;;;;5343159;26;20331;-78
2024/04/14 08:02:06;;;;;;;7.33;6.90;;;18.90;17.30;;;;;;5311340;27;20811;-80
2024/04/14 08:04:32;;;;;;;8.30;7.60;;;19.00;17.70;;;;;;5295101;26;20469;-78
2024/04/14 08:06:57;;;;;;;8.37;7.77;;;19.00;17.10;;;;;;5358846;26;20522;-78
2024/04/14 08:09:23;;;;;;;7.80;7.40;;;19.10;16.50;;;;;;5323899;26;20239;-78
2024/04/14 08:11:48;;;;;;;7.80;7.40;;;19.10;16.80;;;;;;5288484;27;20241;-78
2024/04/14 08:14:14;;;;;;;7.73;7.33;;;19.20;16.40;;;;;;5314538;27;20720;-78
2024/04/14 08:16:44;;;;;;;7.50;7.10;;;19.30;16.90;;;;;;5297262;26;20235;-79
2024/04/14 08:19:09;;;;;;;7.83;6.87;;;19.30;15.90;;;;;;5269678;27;20585;-78
2024/04/14 08:21:35;;;;;;;7.07;6.63;;;19.40;15.70;;;;;;5329127;26;20458;-79
2024/04/14 08:24:00;;;;;;;6.83;6.43;;;19.50;15.80;;;;;;5319783;26;20228;-79
2024/04/14 08:26:26;;;;;;;6.97;6.57;;;19.50;15.40;;;;;;5330019;26;20279;-79
2024/04/14 08:28:51;;;;;;;7.30;6.90;;;19.60;15.90;;;;;;5332842;26;20279;-79
2024/04/14 08:31:17;;;;;;;6.77;6.40;;;19.60;15.10;;;;;;5296031;27;20314;-79
2024/04/14 08:33:42;;;;;;;7.03;6.53;;;19.80;14.70;;;;;;5294476;27;20301;-79
2024/04/14 08:36:09;;;;;;;7.83;7.07;;;19.80;14.90;;;;;;5281401;27;20264;-79
2024/04/14 08:38:35;;;;;;;7.97;7.37;;;19.90;15.00;;;;;;5306333;26;20240;-79
2024/04/14 08:41:00;;;;;;;7.37;6.87;;;20.00;13.90;;;;;;5300311;27;20461;-77
2024/04/14 08:43:27;;;;;;;7.60;7.20;;;20.00;14.10;;;;;;5260913;27;20465;-79
2024/04/14 08:45:56;;;;;;;7.00;6.50;;;20.10;14.60;;;;;;5266307;27;20526;-78
2024/04/14 08:48:22;;;;;;;7.00;6.60;;;20.10;14.60;;;;;;5291611;27;20671;-78
2024/04/14 08:50:47;;;;;;;6.80;6.40;;;20.10;14.50;;;;;;5308895;27;20558;-80
2024/04/14 08:53:17;;;;;;;7.43;6.90;;;20.10;14.20;;;;;;5269647;27;20587;-78
2024/04/14 08:55:43;;;;;;;7.73;7.33;;;20.30;13.60;;;;;;5270059;27;20330;-78
2024/04/14 08:58:10;;;;;;;7.63;7.23;;;20.30;14.20;;;;;;5263828;27;20586;-79
2024/04/14 09:00:37;;;;;;;7.57;7.17;;;20.30;14.50;;;;;;5292741;27;20524;-78
2024/04/14 09:03:04;;;;;;;7.10;6.80;;;20.30;14.30;;;;;;5310349;27;20463;-78
2024/04/14 09:05:31;;;;;;;7.80;7.30;;;20.40;14.20;;;;;;5264462;27;20532;-78
2024/04/14 09:07:56;;;;;;;8.33;7.80;;;20.50;13.70;;;;;;5296467;27;20822;-77
2024/04/14 09:10:23;;;;;;;7.50;7.20;;;20.50;13.70;;;;;;5305748;27;20544;-78
2024/04/14 09:12:48;;;;;;;6.67;6.37;;;20.50;13.80;;;;;;5308816;27;20267;-78
2024/04/14 09:15:14;;;;;;;8.33;7.83;;;20.60;13.50;;;;;;5306262;27;20985;-77
2024/04/14 09:17:40;;;;;;;7.30;7.00;;;20.80;13.30;;;;;;5279998;27;20241;-78
2024/04/14 09:20:06;;;;;;;7.70;7.07;;;21.00;13.10;;;;;;5298617;27;20348;-77
2024/04/14 09:22:32;;;;;;;7.00;6.50;;;21.10;13.00;;;;;;5283726;27;20236;-77
2024/04/14 09:24:58;;;;;;;7.60;6.90;;;21.20;13.10;;;;;;5297886;27;20842;-78
2024/04/14 09:27:24;;;;;;;7.00;6.70;;;21.40;12.60;;;;;;5293746;27;20238;-78
2024/04/14 09:29:49;;;;;;;7.00;6.70;;;21.50;12.60;;;;;;5344765;26;20286;-78
2024/04/14 09:32:15;;;;;;;6.50;6.20;;;21.60;12.70;;;;;;5332020;26;20466;-78
2024/04/14 09:34:41;;;;;;;7.53;7.20;;;21.60;13.70;;;;;;5375641;26;20246;-78
2024/04/14 09:37:08;;;;;;;7.03;6.53;;;21.70;13.70;;;;;;5338015;26;20239;-78
2024/04/14 09:39:34;;;;;;;7.33;6.63;;;21.90;14.00;;;;;;5352253;26;20230;-78
2024/04/14 09:42:00;;;;;;;7.10;6.50;;;21.90;14.20;;;;;;5369013;26;21100;-78
2024/04/14 09:44:27;;;;;;;7.77;6.90;;;22.10;14.50;;;;;;5352669;26;20841;-78
2024/04/14 09:46:53;;;;;;;5.90;5.50;;;22.10;13.70;;;;;;5382694;26;20578;-77
2024/04/14 09:49:24;;;;;;;6.50;6.20;;;22.20;13.40;;;;;;5324744;26;20477;-77
2024/04/14 09:51:52;;;;;;;7.33;6.73;;;22.30;13.50;;;;;;5338144;26;20254;-78
2024/04/14 09:54:19;;;;;;;6.30;6.00;;;22.50;13.40;;;;;;5360888;26;20571;-77
2024/04/14 09:56:45;;;;;;;7.23;6.73;;;22.60;13.20;;;;;;5359774;26;20470;-77
2024/04/14 09:59:10;;;;;;;6.57;6.17;;;22.60;13.40;;;;;;5344807;26;20521;-78
2024/04/14 10:01:39;;;;;;;6.97;6.67;;;22.60;13.40;;;;;;5356146;26;20234;-77
2024/04/14 10:04:05;;;;;;;6.63;6.33;;;22.60;13.30;;;;;;5348184;26;20321;-77
2024/04/14 10:06:32;;;;;;;6.73;6.33;;;22.70;13.40;;;;;;5355856;26;20777;-78
2024/04/14 10:09:01;;;;;;;6.73;6.30;;;22.70;13.30;;;;;;5318589;26;20493;-77
2024/04/14 10:11:27;;;;;;;6.63;6.13;;;22.80;13.60;;;;;;5323943;26;20468;-77
2024/04/14 10:13:55;;;;;;;7.20;6.60;;;22.80;13.50;;;;;;5334615;26;20600;-76
2024/04/14 10:16:22;;;;;;;6.93;6.43;;;22.90;13.70;;;;;;5324124;26;20285;-77
2024/04/14 10:18:48;;;;;;;6.77;6.47;;;22.90;14.10;;;;;;5324503;26;20560;-77
2024/04/14 10:21:18;;;;;;;6.77;6.47;;;22.90;13.80;;;;;;5352071;26;20979;-77
2024/04/14 10:23:49;;;;;;;6.53;6.20;;;22.90;13.70;;;;;;5321901;26;20474;-77
2024/04/14 10:26:19;;;;;;;15.70;14.50;;;22.90;13.70;;;;;;5352967;26;20464;-77
2024/04/14 10:28:53;;;;;;;8.73;7.90;;;22.90;13.90;;;;;;5339577;26;20533;-77
2024/04/14 10:31:34;;;;;;;6.87;6.37;;;22.90;13.30;;;;;;5356673;26;20461;-77
2024/04/14 10:34:11;;;;;;;6.80;6.40;;;22.90;13.60;;;;;;5319967;26;20588;-77
2024/04/14 10:36:40;;;;;;;6.97;6.57;;;23.00;13.70;;;;;;5369451;26;20608;-77
2024/04/14 10:39:06;;;;;;;6.73;6.30;;;23.00;14.00;;;;;;5377509;26;20480;-77
2024/04/14 10:41:34;;;;;;;7.30;6.80;;;23.00;13.70;;;;;;5345895;26;21123;-77
2024/04/14 10:43:59;;;;;;;8.20;7.60;;;23.00;13.90;;;;;;5377603;26;20471;-78
2024/04/14 10:46:25;;;;;;;6.80;6.43;;;23.10;13.90;;;;;;5359611;26;20521;-77
2024/04/14 10:48:51;;;;;;;6.90;6.60;;;23.10;14.10;;;;;;5315571;26;20601;-77
2024/04/14 10:51:17;;;;;;;7.30;6.90;;;23.10;14.30;;;;;;5347076;26;20466;-77
2024/04/14 10:53:42;;;;;;;7.60;6.93;;;23.10;14.40;;;;;;5347348;26;20595;-76
2024/04/14 10:56:09;;;;;;;7.33;6.80;;;23.10;14.30;;;;;;5365505;26;20234;-76
2024/04/14 10:58:36;;;;;;;8.80;8.10;;;23.10;14.70;;;;;;5357242;26;20308;-76
2024/04/14 11:01:02;;;;;;;7.47;6.97;;;23.10;14.70;;;;;;5346139;26;20848;-77
2024/04/14 11:03:28;;;;;;;6.70;6.30;;;23.10;14.90;;;;;;5347177;26;20469;-77
2024/04/14 11:05:55;;;;;;;6.87;6.40;;;23.10;14.10;;;;;;5348591;26;20525;-77
2024/04/14 11:08:22;;;;;;;7.57;7.03;;;23.10;14.20;;;;;;5375191;26;20349;-77
2024/04/14 11:10:49;;;;;;;6.03;5.80;;;23.10;15.20;;;;;;5376181;26;20531;-80
2024/04/14 11:13:16;;;;;;;7.00;6.70;;;23.00;14.50;;;;;;5348361;26;20477;-77
2024/04/14 11:15:45;;;;;;;7.37;6.87;;;23.00;14.80;;;;;;5376244;26;21050;-77
2024/04/14 11:18:11;;;;;;;7.20;6.60;;;22.90;15.00;;;;;;5374894;26;20488;-78
2024/04/14 11:20:36;;;;;;;7.77;7.23;;;22.80;14.90;;;;;;5349555;26;20596;-79
2024/04/14 11:23:03;;;;;;;7.30;6.90;;;22.80;14.90;;;;;;5355030;26;20277;-78
2024/04/14 11:25:30;;;;;;;7.20;6.80;;;22.80;14.90;;;;;;5348083;26;20616;-77
2024/04/14 11:27:56;;;;;;;7.33;6.90;;;22.70;14.90;;;;;;5326558;26;20809;-77
2024/04/14 11:30:29;;;;;;;8.20;7.60;;;22.80;14.90;;;;;;5371345;26;20521;-78
2024/04/14 11:33:01;;;;;;;7.53;7.03;;;22.80;14.90;;;;;;5347510;26;20284;-76
2024/04/14 11:35:26;;;;;;;9.30;8.70;;;22.80;14.90;;;;;;5352929;26;20488;-78
2024/04/14 11:37:54;;;;;;;7.40;7.00;;;22.80;14.90;;;;;;5368383;26;20536;-78
2024/04/14 11:40:23;;;;;;;7.67;7.13;;;22.80;14.50;;;;;;5359314;26;20230;-79
2024/04/14 11:42:49;;;;;;;8.30;7.70;;;22.80;15.00;;;;;;5384723;26;20525;-77
2024/04/14 11:45:15;;;;;;;8.93;8.23;;;22.70;14.90;;;;;;5379736;26;20516;-78
2024/04/14 11:47:41;;;;;;;6.90;6.50;;;22.70;14.90;;;;;;5375521;26;20468;-78
2024/04/14 11:50:08;;;;;;;6.97;6.47;;;22.70;14.90;;;;;;5383730;26;20589;-78
2024/04/14 11:52:34;;;;;;;7.17;6.70;;;22.80;14.90;;;;;;5360544;26;20637;-78
2024/04/14 11:55:03;;;;;;;7.37;6.90;;;22.70;14.80;;;;;;5383169;26;20461;-77
2024/04/14 11:57:29;;;;;;;8.13;7.57;;;22.80;14.20;;;;;;5378329;26;20234;-78
2024/04/14 11:59:54;;;;;;;6.80;6.20;;;22.90;14.20;;;;;;5381450;26;20550;-81
2024/04/14 12:02:21;;;;;;;6.40;6.10;;;23.00;14.40;;;;;;5355928;26;20281;-78
2024/04/14 12:04:48;;;;;;;7.77;7.20;;;23.00;13.70;;;;;;5384571;26;20273;-79
2024/04/14 12:07:14;;;;;;;7.10;6.50;;;23.00;13.60;;;;;;5339678;26;20456;-79
2024/04/14 12:09:39;;;;;;;10.33;9.50;;;23.00;13.10;;;;;;5378760;26;21262;-78
2024/04/14 12:12:08;;;;;;;8.93;8.33;;;23.10;13.40;;;;;;5369783;26;21023;-81
2024/04/14 12:14:33;;;;;;;6.77;6.30;;;23.20;13.50;;;;;;5383961;26;20305;-79
2024/04/14 12:16:59;;;;;;;8.90;8.30;;;23.20;13.40;;;;;;5383901;26;20464;-78
2024/04/14 12:19:26;;;;;;;6.73;6.30;;;23.10;12.50;;;;;;5379141;26;20258;-79
2024/04/14 12:21:52;;;;;;;6.57;6.17;;;23.20;12.00;;;;;;5348545;26;20479;-79
2024/04/14 12:24:17;;;;;;;7.10;6.63;;;23.20;11.50;;;;;;5346613;26;20844;-81
2024/04/14 12:26:46;;;;;;;7.90;7.07;;;23.30;11.50;;;;;;5382707;26;20269;-79
2024/04/14 12:29:12;;;;;;;6.87;6.40;;;23.30;12.10;;;;;;5348120;26;20254;-81
2024/04/14 12:31:37;;;;;;;7.43;6.93;;;23.40;12.50;;;;;;5378109;26;20461;-78
2024/04/14 12:34:03;;;;;;;7.80;7.30;;;23.40;11.60;;;;;;5382684;26;20280;-77
2024/04/14 12:36:29;;;;;;;8.43;7.60;;;23.30;12.20;;;;;;5376622;26;20231;-79
2024/04/14 12:38:54;;;;;;;7.63;7.23;;;23.30;11.50;;;;;;5379699;26;20234;-79
2024/04/14 12:41:23;;;;;;;6.93;6.53;;;23.30;11.50;;;;;;5379560;26;20310;-80
2024/04/14 12:43:49;;;;;;;7.00;6.70;;;23.30;10.10;;;;;;5351583;26;20233;-78
2024/04/14 12:46:15;;;;;;;7.30;6.90;;;23.30;10.40;;;;;;5352966;26;21045;-80
2024/04/14 12:48:43;;;;;;;7.83;7.33;;;23.30;10.90;;;;;;5382627;26;20246;-78
2024/04/14 12:51:09;;;;;;;7.70;7.23;;;23.30;11.30;;;;;;5383883;26;21296;-78
2024/04/14 12:53:35;;;;;;;9.60;8.90;;;23.30;10.90;;;;;;5348693;26;20516;-77
2024/04/14 12:56:01;;;;;;;6.80;6.30;;;23.30;10.90;;;;;;5370580;26;20454;-78